createdAt,value
2022-12-12T00:00:35.082Z,94.24
2022-12-12T00:01:35.095Z,93.62
2022-12-12T00:02:35.160Z,93.93
2022-12-12T00:03:35.171Z,93.97
2022-12-12T00:04:35.059Z,94.04
2022-12-12T00:05:35.048Z,94.45
2022-12-12T00:06:35.090Z,94.35
2022-12-12T00:07:35.072Z,94.67
2022-12-12T00:08:35.027Z,94.67
2022-12-12T00:09:35.022Z,95.08
2022-12-12T00:10:35.012Z,93.82
2022-12-12T00:11:35.004Z,94.49
2022-12-12T00:12:35.029Z,94.24
2022-12-12T00:13:34.995Z,94.49
2022-12-12T00:14:34.993Z,94.45
2022-12-12T00:15:35.017Z,94.92
2022-12-12T00:16:34.977Z,95.08
2022-12-12T00:17:34.995Z,94.67
2022-12-12T00:18:34.959Z,94.24
2022-12-12T00:19:34.955Z,94.35
2022-12-12T00:20:34.958Z,93.76
2022-12-12T00:21:34.924Z,93.30
2022-12-12T00:22:35.970Z,93.40
2022-12-12T00:23:34.925Z,93.62
2022-12-12T00:24:34.924Z,93.40
2022-12-12T00:25:34.922Z,93.40
2022-12-12T00:26:34.942Z,93.24
2022-12-12T00:27:34.924Z,93.44
2022-12-12T00:28:34.896Z,93.66
2022-12-12T00:29:34.880Z,93.66
2022-12-12T00:30:34.880Z,93.72
2022-12-12T00:31:34.940Z,93.44
2022-12-12T00:32:34.893Z,93.87
2022-12-12T00:33:34.856Z,93.40
2022-12-12T00:34:34.850Z,93.09
2022-12-12T00:35:34.843Z,93.30
2022-12-12T00:36:34.836Z,93.40
2022-12-12T00:37:34.865Z,92.99
2022-12-12T00:38:34.821Z,92.67
2022-12-12T00:39:34.810Z,93.62
2022-12-12T00:40:34.808Z,93.40
2022-12-12T00:41:34.798Z,93.09
2022-12-12T00:42:34.817Z,93.09
2022-12-12T00:43:34.783Z,93.13
2022-12-12T00:44:34.773Z,93.66
2022-12-12T00:45:34.766Z,93.55
2022-12-12T00:46:34.810Z,93.62
2022-12-12T00:47:34.784Z,93.24
2022-12-12T00:48:34.785Z,92.92
2022-12-12T00:50:07.592Z,93.51
2022-12-12T00:50:34.730Z,93.62
2022-12-12T00:51:34.721Z,93.30
2022-12-12T00:52:34.748Z,93.09
2022-12-12T00:53:34.712Z,93.30
2022-12-12T00:54:34.705Z,93.40
2022-12-12T00:55:34.699Z,92.77
2022-12-12T00:56:34.690Z,92.82
2022-12-12T00:57:34.707Z,92.14
2022-12-12T00:58:34.674Z,92.71
2022-12-12T00:59:34.672Z,92.61
2022-12-12T01:00:34.665Z,92.61
2022-12-12T01:01:34.699Z,92.57
2022-12-12T01:02:34.775Z,92.71
2022-12-12T01:03:34.640Z,92.71
2022-12-12T01:04:34.631Z,92.82
2022-12-12T01:05:34.626Z,92.82
2022-12-12T01:06:34.625Z,93.13
2022-12-12T01:07:34.648Z,92.61
2022-12-12T01:08:34.605Z,92.40
2022-12-12T01:09:34.607Z,92.71
2022-12-12T01:10:34.596Z,92.88
2022-12-12T01:11:34.591Z,93.40
2022-12-12T01:12:34.634Z,93.13
2022-12-12T01:13:34.572Z,93.09
2022-12-12T01:14:34.567Z,93.09
2022-12-12T01:15:34.559Z,93.19
2022-12-12T01:16:34.611Z,93.40
2022-12-12T01:17:34.573Z,93.82
2022-12-12T01:18:34.536Z,93.62
2022-12-12T01:19:34.527Z,92.88
2022-12-12T01:20:34.519Z,93.51
2022-12-12T01:21:34.514Z,93.51
2022-12-12T01:22:34.537Z,93.19
2022-12-12T01:23:34.499Z,92.77
2022-12-12T01:24:34.484Z,92.67
2022-12-12T01:25:35.497Z,92.67
2022-12-12T01:26:34.478Z,92.88
2022-12-12T01:27:34.499Z,92.67
2022-12-12T01:28:34.468Z,92.77
2022-12-12T01:29:34.477Z,92.77
2022-12-12T01:30:34.462Z,92.52
2022-12-12T01:31:34.581Z,93.40
2022-12-12T01:32:34.492Z,93.30
2022-12-12T01:33:34.432Z,92.67
2022-12-12T01:34:34.432Z,92.52
2022-12-12T01:35:34.463Z,92.21
2022-12-12T01:36:34.405Z,92.46
2022-12-12T01:37:34.443Z,92.25
2022-12-12T01:38:34.396Z,92.46
2022-12-12T01:39:34.385Z,92.57
2022-12-12T01:40:34.381Z,92.25
2022-12-12T01:41:34.375Z,91.83
2022-12-12T01:42:34.384Z,92.67
2022-12-12T01:43:34.352Z,92.57
2022-12-12T01:44:34.346Z,93.02
2022-12-12T01:45:34.343Z,92.82
2022-12-12T01:46:34.390Z,93.24
2022-12-12T01:47:34.356Z,93.66
2022-12-12T01:48:34.332Z,93.59
2022-12-12T01:49:34.313Z,94.85
2022-12-12T01:50:34.315Z,94.54
2022-12-12T01:51:34.298Z,94.65
2022-12-12T01:52:34.313Z,94.33
2022-12-12T01:53:34.298Z,94.60
2022-12-12T01:54:34.276Z,95.17
2022-12-12T01:55:34.268Z,94.65
2022-12-12T01:56:34.269Z,94.85
2022-12-12T01:57:34.316Z,94.54
2022-12-12T01:58:34.249Z,94.54
2022-12-12T01:59:34.247Z,94.65
2022-12-12T02:00:34.277Z,94.54
2022-12-12T02:01:34.225Z,94.54
2022-12-12T02:02:34.244Z,94.79
2022-12-12T02:03:34.213Z,95.32
2022-12-12T02:04:34.207Z,95.74
2022-12-12T02:05:34.200Z,96.16
2022-12-12T02:06:34.191Z,96.05
2022-12-12T02:07:34.189Z,96.26
2022-12-12T02:08:34.204Z,96.69
2022-12-12T02:09:34.177Z,96.47
2022-12-12T02:10:34.166Z,96.47
2022-12-12T02:11:34.154Z,96.83
2022-12-12T02:12:34.148Z,96.83
2022-12-12T02:13:34.171Z,96.51
2022-12-12T02:14:34.133Z,97.25
2022-12-12T02:15:34.134Z,97.15
2022-12-12T02:16:34.146Z,97.36
2022-12-12T02:17:34.101Z,97.25
2022-12-12T02:18:35.136Z,97.15
2022-12-12T02:19:34.096Z,97.15
2022-12-12T02:20:34.089Z,97.05
2022-12-12T02:21:34.085Z,97.42
2022-12-12T02:22:34.077Z,97.11
2022-12-12T02:23:34.103Z,96.83
2022-12-12T02:24:34.062Z,97.05
2022-12-12T02:25:34.057Z,96.89
2022-12-12T02:26:34.051Z,96.94
2022-12-12T02:27:34.032Z,97.25
2022-12-12T02:28:34.055Z,97.05
2022-12-12T02:29:34.030Z,97.05
2022-12-12T02:30:34.017Z,97.25
2022-12-12T02:31:34.034Z,97.15
2022-12-12T02:32:34.052Z,97.25
2022-12-12T02:33:34.022Z,97.67
2022-12-12T02:34:33.996Z,97.88
2022-12-12T02:35:33.986Z,97.99
2022-12-12T02:36:33.978Z,97.25
2022-12-12T02:37:33.971Z,97.78
2022-12-12T02:38:33.998Z,97.47
2022-12-12T02:39:33.958Z,97.57
2022-12-12T02:40:33.946Z,97.67
2022-12-12T02:41:33.947Z,97.57
2022-12-12T02:42:33.990Z,97.53
2022-12-12T02:43:33.958Z,97.21
2022-12-12T02:44:33.920Z,97.11
2022-12-12T02:45:33.912Z,97.36
2022-12-12T02:46:33.940Z,96.83
2022-12-12T02:47:33.902Z,97.25
2022-12-12T02:48:33.923Z,97.25
2022-12-12T02:49:33.880Z,97.25
2022-12-12T02:50:33.878Z,97.25
2022-12-12T02:51:33.909Z,96.94
2022-12-12T02:52:33.860Z,97.15
2022-12-12T02:53:33.894Z,97.47
2022-12-12T02:54:33.855Z,97.67
2022-12-12T02:55:36.555Z,97.82
2022-12-12T02:56:34.833Z,97.93
2022-12-12T02:57:33.834Z,98.14
2022-12-12T02:58:33.854Z,98.14
2022-12-12T02:59:33.808Z,98.24
2022-12-12T03:00:33.843Z,98.29
2022-12-12T03:01:33.844Z,98.18
2022-12-12T03:02:33.791Z,98.50
2022-12-12T03:03:33.781Z,98.50
2022-12-12T03:04:33.800Z,98.39
2022-12-12T03:05:33.774Z,98.71
2022-12-12T03:06:39.223Z,98.50
2022-12-12T03:07:35.754Z,98.39
2022-12-12T03:08:33.764Z,98.18
2022-12-12T03:09:33.774Z,98.29
2022-12-12T03:10:33.730Z,97.97
2022-12-12T03:11:33.725Z,97.66
2022-12-12T03:12:33.727Z,97.76
2022-12-12T03:13:33.714Z,97.45
2022-12-12T03:14:33.729Z,97.45
2022-12-12T03:15:33.696Z,97.28
2022-12-12T03:16:33.707Z,97.66
2022-12-12T03:17:33.686Z,97.76
2022-12-12T03:18:33.681Z,97.76
2022-12-12T03:19:33.692Z,97.60
2022-12-12T03:20:33.660Z,97.91
2022-12-12T03:21:33.654Z,97.81
2022-12-12T03:22:33.648Z,97.28
2022-12-12T03:23:33.646Z,97.39
2022-12-12T03:24:33.665Z,97.43
2022-12-12T03:25:33.627Z,97.39
2022-12-12T03:26:33.619Z,97.60
2022-12-12T03:27:33.611Z,98.07
2022-12-12T03:28:33.602Z,98.33
2022-12-12T03:29:33.623Z,98.23
2022-12-12T03:30:33.586Z,98.55
2022-12-12T03:31:33.612Z,98.38
2022-12-12T03:32:33.574Z,98.33
2022-12-12T03:33:33.573Z,98.23
2022-12-12T03:34:33.594Z,98.69
2022-12-12T03:35:33.554Z,98.33
2022-12-12T03:36:33.559Z,98.33
2022-12-12T03:37:33.541Z,98.59
2022-12-12T03:38:33.543Z,98.38
2022-12-12T03:39:33.555Z,98.59
2022-12-12T03:40:33.516Z,98.38
2022-12-12T03:41:33.512Z,98.49
2022-12-12T03:42:33.498Z,98.59
2022-12-12T03:43:33.496Z,98.59
2022-12-12T03:44:38.176Z,98.53
2022-12-12T03:45:35.621Z,98.21
2022-12-12T03:46:33.470Z,98.63
2022-12-12T03:47:33.469Z,98.74
2022-12-12T03:48:33.468Z,98.53
2022-12-12T03:49:33.452Z,98.74
2022-12-12T03:50:33.477Z,98.74
2022-12-12T03:51:33.439Z,98.95
2022-12-12T03:52:33.438Z,98.63
2022-12-12T03:53:33.428Z,98.00
2022-12-12T03:54:33.425Z,98.43
2022-12-12T03:55:33.436Z,98.74
2022-12-12T03:56:33.407Z,98.43
2022-12-12T03:57:33.404Z,98.43
2022-12-12T03:58:33.390Z,98.32
2022-12-12T03:59:33.388Z,98.43
2022-12-12T04:00:33.398Z,98.43
2022-12-12T04:01:33.397Z,98.47
2022-12-12T04:02:33.406Z,97.83
2022-12-12T04:03:34.350Z,97.63
2022-12-12T04:04:33.347Z,97.41
2022-12-12T04:05:33.363Z,97.73
2022-12-12T04:06:33.339Z,97.41
2022-12-12T04:07:33.324Z,97.73
2022-12-12T04:08:33.318Z,97.83
2022-12-12T04:09:33.304Z,98.25
2022-12-12T04:10:34.330Z,98.47
2022-12-12T04:11:33.296Z,98.57
2022-12-12T04:12:33.283Z,98.79
2022-12-12T04:13:33.287Z,98.51
2022-12-12T04:14:33.269Z,98.30
2022-12-12T04:15:33.285Z,98.19
2022-12-12T04:16:33.296Z,98.36
2022-12-12T04:17:33.253Z,98.61
2022-12-12T04:18:33.248Z,98.83
2022-12-12T04:19:33.236Z,98.83
2022-12-12T04:20:33.250Z,98.72
2022-12-12T04:21:33.239Z,98.55
2022-12-12T04:22:33.217Z,98.51
2022-12-12T04:23:33.203Z,98.98
2022-12-12T04:24:33.202Z,98.93
2022-12-12T04:25:33.218Z,99.08
2022-12-12T04:26:33.206Z,99.51
2022-12-12T04:27:33.180Z,99.30
2022-12-12T04:28:33.166Z,99.61
2022-12-12T04:29:33.164Z,99.08
2022-12-12T04:30:33.196Z,99.30
2022-12-12T04:31:33.171Z,98.77
2022-12-12T04:32:33.173Z,98.87
2022-12-12T04:33:33.138Z,98.92
2022-12-12T04:34:33.134Z,99.30
2022-12-12T04:35:33.124Z,98.77
2022-12-12T04:36:33.119Z,98.98
2022-12-12T04:37:33.144Z,98.71
2022-12-12T04:38:33.102Z,98.81
2022-12-12T04:39:33.094Z,98.92
2022-12-12T04:40:33.078Z,98.81
2022-12-12T04:41:33.072Z,98.49
2022-12-12T04:42:33.122Z,98.28
2022-12-12T04:43:33.070Z,98.39
2022-12-12T04:44:33.055Z,98.49
2022-12-12T04:45:33.095Z,98.28
2022-12-12T04:46:33.048Z,99.13
2022-12-12T04:47:33.057Z,98.92
2022-12-12T04:48:37.141Z,98.92
2022-12-12T04:49:35.010Z,98.92
2022-12-12T04:50:33.015Z,99.13
2022-12-12T04:51:33.008Z,98.92
2022-12-12T04:52:33.018Z,98.81
2022-12-12T04:53:32.991Z,98.92
2022-12-12T04:54:32.979Z,99.02
2022-12-12T04:55:32.972Z,98.75
2022-12-12T04:56:32.963Z,98.71
2022-12-12T04:57:32.984Z,99.07
2022-12-12T04:58:32.967Z,98.54
2022-12-12T04:59:32.946Z,98.96
2022-12-12T05:00:32.938Z,98.65
2022-12-12T05:01:33.014Z,98.96
2022-12-12T05:02:32.973Z,98.96
2022-12-12T05:03:32.914Z,98.86
2022-12-12T05:04:32.902Z,98.90
2022-12-12T05:05:32.905Z,98.86
2022-12-12T05:06:32.907Z,98.80
2022-12-12T05:07:37.899Z,98.58
2022-12-12T05:08:34.880Z,98.21
2022-12-12T05:09:32.870Z,98.10
2022-12-12T05:10:32.863Z,98.68
2022-12-12T05:11:32.855Z,98.94
2022-12-12T05:12:32.873Z,99.20
2022-12-12T05:13:32.847Z,98.88
2022-12-12T05:14:32.830Z,99.16
2022-12-12T05:15:32.821Z,98.99
2022-12-12T05:16:32.967Z,98.46
2022-12-12T05:17:32.815Z,98.46
2022-12-12T05:18:32.833Z,98.46
2022-12-12T05:19:32.829Z,98.46
2022-12-12T05:20:32.796Z,98.36
2022-12-12T05:21:32.782Z,98.36
2022-12-12T05:22:32.781Z,98.78
2022-12-12T05:23:34.769Z,98.36
2022-12-12T05:24:33.768Z,98.99
2022-12-12T05:25:32.757Z,98.63
2022-12-12T05:26:32.754Z,98.99
2022-12-12T05:27:32.745Z,98.68
2022-12-12T05:28:32.770Z,99.10
2022-12-12T05:29:32.729Z,98.99
2022-12-12T05:30:32.760Z,99.31
2022-12-12T05:31:32.771Z,98.99
2022-12-12T05:32:32.707Z,99.10
2022-12-12T05:33:32.738Z,98.99
2022-12-12T05:34:32.698Z,98.78
2022-12-12T05:35:32.691Z,98.57
2022-12-12T05:36:32.682Z,98.68
2022-12-12T05:37:32.673Z,98.88
2022-12-12T05:38:32.691Z,99.10
2022-12-12T05:39:32.667Z,99.10
2022-12-12T05:40:32.657Z,99.10
2022-12-12T05:41:32.641Z,98.99
2022-12-12T05:42:32.636Z,98.88
2022-12-12T05:43:32.661Z,98.68
2022-12-12T05:44:32.632Z,98.88
2022-12-12T05:45:32.617Z,98.78
2022-12-12T05:46:32.707Z,98.68
2022-12-12T05:47:32.607Z,98.46
2022-12-12T05:48:32.623Z,98.04
2022-12-12T05:49:32.591Z,97.55
2022-12-12T05:50:32.580Z,97.60
2022-12-12T05:51:32.573Z,97.66
2022-12-12T05:52:32.563Z,97.77
2022-12-12T05:53:36.391Z,97.91
2022-12-12T05:54:33.553Z,97.98
2022-12-12T05:55:32.544Z,98.40
2022-12-12T05:56:32.545Z,98.44
2022-12-12T05:57:32.526Z,99.04
2022-12-12T05:58:32.550Z,98.76
2022-12-12T05:59:32.513Z,98.82
2022-12-12T06:00:32.506Z,99.40
2022-12-12T06:01:32.526Z,99.14
2022-12-12T06:02:32.605Z,98.82
2022-12-12T06:03:32.489Z,98.40
2022-12-12T06:04:32.534Z,98.44
2022-12-12T06:05:32.469Z,98.19
2022-12-12T06:06:32.466Z,98.02
2022-12-12T06:07:32.458Z,98.55
2022-12-12T06:08:32.506Z,98.02
2022-12-12T06:09:32.464Z,98.24
2022-12-12T06:10:32.445Z,98.02
2022-12-12T06:11:32.421Z,98.24
2022-12-12T06:12:32.416Z,98.13
2022-12-12T06:13:32.415Z,98.02
2022-12-12T06:14:32.430Z,98.13
2022-12-12T06:15:32.427Z,98.24
2022-12-12T06:16:32.387Z,98.24
2022-12-12T06:17:33.473Z,97.81
2022-12-12T06:18:33.380Z,98.02
2022-12-12T06:19:32.398Z,97.91
2022-12-12T06:20:32.358Z,97.81
2022-12-12T06:21:32.355Z,98.02
2022-12-12T06:22:32.344Z,97.71
2022-12-12T06:23:32.351Z,98.02
2022-12-12T06:24:32.359Z,97.91
2022-12-12T06:25:32.321Z,98.02
2022-12-12T06:26:32.320Z,98.02
2022-12-12T06:27:32.310Z,97.81
2022-12-12T06:28:32.300Z,98.02
2022-12-12T06:29:32.315Z,97.81
2022-12-12T06:30:32.291Z,97.81
2022-12-12T06:31:32.335Z,97.91
2022-12-12T06:32:32.272Z,97.60
2022-12-12T06:33:32.269Z,97.60
2022-12-12T06:34:32.314Z,97.81
2022-12-12T06:35:32.257Z,97.60
2022-12-12T06:36:32.261Z,98.02
2022-12-12T06:37:32.239Z,97.77
2022-12-12T06:38:32.227Z,97.87
2022-12-12T06:39:32.264Z,98.13
2022-12-12T06:40:32.251Z,98.19
2022-12-12T06:41:32.209Z,97.98
2022-12-12T06:42:32.201Z,97.93
2022-12-12T06:43:32.204Z,98.14
2022-12-12T06:44:32.213Z,97.87
2022-12-12T06:45:32.175Z,97.77
2022-12-12T06:46:32.253Z,97.72
2022-12-12T06:47:32.165Z,97.83
2022-12-12T06:48:32.153Z,97.83
2022-12-12T06:49:32.193Z,97.66
2022-12-12T06:51:05.153Z,97.55
2022-12-12T06:51:32.138Z,97.61
2022-12-12T06:52:32.128Z,97.72
2022-12-12T06:53:32.145Z,97.51
2022-12-12T06:54:32.144Z,97.41
2022-12-12T06:55:32.098Z,97.30
2022-12-12T06:56:32.103Z,97.51
2022-12-12T06:57:32.093Z,97.41
2022-12-12T06:58:32.081Z,97.19
2022-12-12T06:59:32.082Z,97.24
2022-12-12T07:00:32.113Z,97.41
2022-12-12T07:01:32.096Z,97.30
2022-12-12T07:02:32.090Z,97.19
2022-12-12T07:03:32.047Z,97.13
2022-12-12T07:04:32.655Z,97.24
2022-12-12T07:05:32.054Z,97.41
2022-12-12T07:06:32.027Z,96.56
2022-12-12T07:07:32.014Z,96.71
2022-12-12T07:08:32.010Z,96.71
2022-12-12T07:09:32.004Z,96.66
2022-12-12T07:10:32.022Z,96.98
2022-12-12T07:11:31.994Z,96.60
2022-12-12T07:12:31.987Z,96.77
2022-12-12T07:13:31.979Z,96.81
2022-12-12T07:14:31.965Z,96.88
2022-12-12T07:15:32.035Z,96.88
2022-12-12T07:16:31.955Z,97.13
2022-12-12T07:17:31.948Z,96.81
2022-12-12T07:18:31.955Z,97.13
2022-12-12T07:19:31.931Z,96.92
2022-12-12T07:20:31.967Z,97.07
2022-12-12T07:21:31.916Z,97.03
2022-12-12T07:22:31.918Z,97.13
2022-12-12T07:23:31.908Z,97.17
2022-12-12T07:24:31.898Z,96.92
2022-12-12T07:25:31.913Z,96.92
2022-12-12T07:26:31.874Z,97.28
2022-12-12T07:27:31.891Z,97.45
2022-12-12T07:28:31.859Z,97.55
2022-12-12T07:29:31.868Z,97.45
2022-12-12T07:30:31.894Z,97.45
2022-12-12T07:31:31.944Z,97.34
2022-12-12T07:32:31.839Z,96.75
2022-12-12T07:33:42.638Z,96.92
2022-12-12T07:34:33.828Z,96.86
2022-12-12T07:35:31.845Z,97.03
2022-12-12T07:36:31.805Z,96.33
2022-12-12T07:37:31.881Z,96.48
2022-12-12T07:38:31.793Z,95.90
2022-12-12T07:39:31.798Z,96.01
2022-12-12T07:40:31.803Z,96.01
2022-12-12T07:41:31.769Z,95.90
2022-12-12T07:42:31.759Z,96.01
2022-12-12T07:43:33.145Z,95.90
2022-12-12T07:44:32.745Z,95.59
2022-12-12T07:45:31.762Z,95.69
2022-12-12T07:46:31.774Z,95.17
2022-12-12T07:47:31.737Z,95.73
2022-12-12T07:48:31.713Z,95.00
2022-12-12T07:49:31.710Z,94.89
2022-12-12T07:50:31.735Z,94.89
2022-12-12T07:51:31.698Z,95.10
2022-12-12T07:52:31.691Z,95.95
2022-12-12T07:53:31.681Z,94.89
2022-12-12T07:54:31.684Z,95.21
2022-12-12T07:55:31.713Z,95.06
2022-12-12T07:56:31.996Z,94.46
2022-12-12T07:57:31.662Z,94.04
2022-12-12T07:58:31.654Z,94.36
2022-12-12T07:59:31.642Z,94.40
2022-12-12T08:00:31.670Z,94.68
2022-12-12T08:01:31.723Z,94.36
2022-12-12T08:02:31.633Z,94.15
2022-12-12T08:03:31.610Z,94.32
2022-12-12T08:04:31.648Z,94.21
2022-12-12T08:05:31.592Z,94.10
2022-12-12T08:06:31.630Z,94.17
2022-12-12T08:07:31.585Z,94.00
2022-12-12T08:08:31.609Z,93.79
2022-12-12T08:09:31.582Z,93.89
2022-12-12T08:10:31.557Z,94.64
2022-12-12T08:11:31.589Z,94.74
2022-12-12T08:12:31.541Z,95.17
2022-12-12T08:13:31.544Z,95.59
2022-12-12T08:14:31.532Z,95.48
2022-12-12T08:15:31.524Z,95.80
2022-12-12T08:16:31.614Z,96.01
2022-12-12T08:17:31.510Z,96.28
2022-12-12T08:18:31.502Z,96.39
2022-12-12T08:19:31.493Z,97.03
2022-12-12T08:20:31.502Z,96.66
2022-12-12T08:21:31.510Z,96.14
2022-12-12T08:22:31.473Z,96.14
2022-12-12T08:23:31.487Z,96.03
2022-12-12T08:24:31.466Z,95.71
2022-12-12T08:25:31.448Z,95.82
2022-12-12T08:26:31.478Z,96.34
2022-12-12T08:27:31.440Z,96.24
2022-12-12T08:28:31.446Z,97.09
2022-12-12T08:29:31.421Z,96.88
2022-12-12T08:30:31.420Z,96.66
2022-12-12T08:31:31.570Z,96.73
2022-12-12T08:32:31.401Z,96.83
2022-12-12T08:33:31.395Z,96.94
2022-12-12T08:34:31.384Z,96.20
2022-12-12T08:35:32.382Z,96.30
2022-12-12T08:36:31.411Z,96.20
2022-12-12T08:37:31.396Z,96.62
2022-12-12T08:38:31.373Z,97.05
2022-12-12T08:39:31.351Z,96.47
2022-12-12T08:40:31.346Z,96.05
2022-12-12T08:41:31.370Z,96.05
2022-12-12T08:42:31.333Z,96.11
2022-12-12T08:43:31.328Z,96.22
2022-12-12T08:44:31.320Z,96.22
2022-12-12T08:45:31.322Z,95.54
2022-12-12T08:46:31.382Z,95.54
2022-12-12T08:47:31.299Z,95.58
2022-12-12T08:48:31.290Z,94.74
2022-12-12T08:49:31.288Z,94.93
2022-12-12T08:50:31.285Z,95.25
2022-12-12T08:51:31.275Z,95.98
2022-12-12T08:52:31.299Z,95.67
2022-12-12T08:53:31.264Z,95.98
2022-12-12T08:54:31.260Z,95.94
2022-12-12T08:55:31.240Z,95.88
2022-12-12T08:56:31.230Z,95.67
2022-12-12T08:57:31.251Z,96.41
2022-12-12T08:58:31.255Z,96.73
2022-12-12T08:59:31.205Z,96.66
2022-12-12T09:00:31.207Z,97.09
2022-12-12T09:01:31.309Z,96.88
2022-12-12T09:02:31.340Z,96.88
2022-12-12T09:03:31.189Z,97.24
2022-12-12T09:04:31.178Z,97.45
2022-12-12T09:05:31.164Z,97.83
2022-12-12T09:06:31.158Z,97.72
2022-12-12T09:07:31.202Z,97.72
2022-12-12T09:08:31.203Z,97.41
2022-12-12T09:09:31.139Z,97.51
2022-12-12T09:10:31.133Z,97.51
2022-12-12T09:11:31.131Z,97.55
2022-12-12T09:12:31.152Z,97.41
2022-12-12T09:13:31.104Z,97.34
2022-12-12T09:14:31.106Z,97.55
2022-12-12T09:15:31.098Z,97.41
2022-12-12T09:16:31.265Z,98.14
2022-12-12T09:17:31.115Z,98.04
2022-12-12T09:18:31.087Z,97.78
2022-12-12T09:19:31.075Z,97.67
2022-12-12T09:20:31.056Z,97.42
2022-12-12T09:21:31.055Z,97.17
2022-12-12T09:22:31.067Z,96.85
2022-12-12T09:23:32.034Z,96.11
2022-12-12T09:24:31.025Z,96.00
2022-12-12T09:25:31.017Z,95.43
2022-12-12T09:26:31.003Z,95.50
2022-12-12T09:27:32.030Z,94.80
2022-12-12T09:28:31.003Z,95.60
2022-12-12T09:29:30.994Z,95.18
2022-12-12T09:30:30.988Z,95.29
2022-12-12T09:31:31.016Z,95.35
2022-12-12T09:32:30.995Z,94.02
2022-12-12T09:33:30.970Z,94.17
2022-12-12T09:34:30.959Z,94.55
2022-12-12T09:35:30.946Z,94.86
2022-12-12T09:36:30.961Z,94.93
2022-12-12T09:37:30.966Z,94.89
2022-12-12T09:38:30.935Z,94.99
2022-12-12T09:39:30.930Z,93.95
2022-12-12T09:40:30.916Z,93.22
2022-12-12T09:41:30.904Z,93.11
2022-12-12T09:42:30.911Z,92.58
2022-12-12T09:43:30.961Z,92.80
2022-12-12T09:44:30.890Z,91.91
2022-12-12T09:45:30.942Z,91.87
2022-12-12T09:46:31.406Z,90.71
2022-12-12T09:47:30.902Z,91.45
2022-12-12T09:48:30.899Z,91.03
2022-12-12T09:49:30.854Z,90.71
2022-12-12T09:50:30.843Z,90.61
2022-12-12T09:51:30.847Z,90.33
2022-12-12T09:52:31.369Z,90.19
2022-12-12T09:53:31.852Z,89.91
2022-12-12T09:54:30.817Z,90.33
2022-12-12T09:55:30.805Z,90.65
2022-12-12T09:56:30.800Z,91.17
2022-12-12T09:57:30.792Z,91.07
2022-12-12T09:58:30.808Z,90.97
2022-12-12T09:59:30.780Z,91.32
2022-12-12T10:00:30.803Z,91.11
2022-12-12T10:01:30.771Z,91.47
2022-12-12T10:02:30.795Z,90.90
2022-12-12T10:03:30.815Z,91.64
2022-12-12T10:04:30.745Z,91.85
2022-12-12T10:05:30.746Z,92.63
2022-12-12T10:06:38.358Z,92.41
2022-12-12T10:07:32.718Z,92.57
2022-12-12T10:08:30.799Z,92.94
2022-12-12T10:09:30.706Z,92.63
2022-12-12T10:10:30.699Z,92.73
2022-12-12T10:11:30.693Z,92.35
2022-12-12T10:12:30.692Z,92.46
2022-12-12T10:13:30.706Z,92.73
2022-12-12T10:14:30.669Z,92.63
2022-12-12T10:15:30.663Z,92.46
2022-12-12T10:16:30.708Z,92.73
2022-12-12T10:17:30.647Z,92.63
2022-12-12T10:18:30.678Z,92.52
2022-12-12T10:19:30.646Z,92.31
2022-12-12T10:20:30.627Z,92.63
2022-12-12T10:21:30.623Z,92.67
2022-12-12T10:22:30.615Z,92.52
2022-12-12T10:23:30.636Z,92.94
2022-12-12T10:24:30.602Z,92.73
2022-12-12T10:25:30.593Z,92.63
2022-12-12T10:26:30.612Z,92.94
2022-12-12T10:27:30.584Z,92.52
2022-12-12T10:28:30.598Z,92.67
2022-12-12T10:29:30.558Z,93.09
2022-12-12T10:30:30.561Z,93.09
2022-12-12T10:31:30.588Z,92.57
2022-12-12T10:32:30.541Z,92.99
2022-12-12T10:33:30.568Z,92.88
2022-12-12T10:34:30.533Z,93.19
2022-12-12T10:35:30.749Z,92.99
2022-12-12T10:36:30.509Z,92.99
2022-12-12T10:37:30.503Z,92.99
2022-12-12T10:38:30.499Z,93.73
2022-12-12T10:39:30.512Z,93.73
2022-12-12T10:40:30.502Z,93.73
2022-12-12T10:41:30.472Z,93.62
2022-12-12T10:42:30.468Z,93.47
2022-12-12T10:43:30.464Z,93.37
2022-12-12T10:44:30.479Z,93.73
2022-12-12T10:45:30.468Z,93.57
2022-12-12T10:46:30.519Z,94.21
2022-12-12T10:47:30.623Z,93.79
2022-12-12T10:48:30.439Z,93.43
2022-12-12T10:49:30.449Z,93.68
2022-12-12T10:50:30.414Z,93.53
2022-12-12T10:51:30.405Z,94.17
2022-12-12T10:52:30.428Z,93.64
2022-12-12T10:53:30.387Z,94.17
2022-12-12T10:54:30.546Z,92.94
2022-12-12T10:55:30.378Z,93.95
2022-12-12T10:56:30.365Z,93.47
2022-12-12T10:57:30.363Z,93.57
2022-12-12T10:58:30.361Z,93.99
2022-12-12T10:59:30.534Z,94.10
2022-12-12T11:00:30.339Z,93.95
2022-12-12T11:02:00.432Z,93.85
2022-12-12T11:02:32.523Z,93.43
2022-12-12T11:03:30.340Z,93.79
2022-12-12T11:04:30.348Z,94.10
2022-12-12T11:05:30.311Z,94.10
2022-12-12T11:06:30.294Z,94.57
2022-12-12T11:07:30.290Z,94.90
2022-12-12T11:08:30.328Z,95.37
2022-12-12T11:09:30.314Z,94.21
2022-12-12T11:10:33.994Z,94.42
2022-12-12T11:11:31.260Z,94.95
2022-12-12T11:12:30.252Z,95.01
2022-12-12T11:13:30.245Z,95.43
2022-12-12T11:14:30.243Z,94.48
2022-12-12T11:15:30.257Z,93.38
2022-12-12T11:16:30.260Z,93.38
2022-12-12T11:17:30.229Z,93.43
2022-12-12T11:18:30.224Z,93.64
2022-12-12T11:19:30.200Z,93.53
2022-12-12T11:20:30.216Z,93.32
2022-12-12T11:21:30.197Z,93.70
2022-12-12T11:22:30.247Z,93.38
2022-12-12T11:23:30.187Z,93.74
2022-12-12T11:24:30.168Z,93.74
2022-12-12T11:25:30.185Z,94.10
2022-12-12T11:26:30.150Z,93.99
2022-12-12T11:27:30.155Z,94.06
2022-12-12T11:28:30.138Z,93.74
2022-12-12T11:29:30.131Z,94.59
2022-12-12T11:30:30.177Z,94.06
2022-12-12T11:31:30.180Z,93.53
2022-12-12T11:32:30.118Z,93.74
2022-12-12T11:33:30.101Z,93.74
2022-12-12T11:34:30.086Z,93.53
2022-12-12T11:35:30.118Z,93.74
2022-12-12T11:36:30.081Z,93.91
2022-12-12T11:37:30.081Z,93.76
2022-12-12T11:38:30.118Z,93.66
2022-12-12T11:39:30.059Z,93.24
2022-12-12T11:40:30.084Z,93.66
2022-12-12T11:41:30.043Z,94.23
2022-12-12T11:42:30.046Z,93.70
2022-12-12T11:43:30.028Z,93.24
2022-12-12T11:44:30.019Z,93.34
2022-12-12T11:45:30.118Z,93.76
2022-12-12T11:46:30.008Z,93.91
2022-12-12T11:47:30.006Z,93.38
2022-12-12T11:48:29.994Z,93.49
2022-12-12T11:49:29.984Z,93.76
2022-12-12T11:50:30.005Z,94.02
2022-12-12T11:51:29.980Z,93.28
2022-12-12T11:52:29.956Z,93.70
2022-12-12T11:53:29.958Z,93.87
2022-12-12T11:54:29.957Z,93.76
2022-12-12T11:55:29.976Z,94.18
2022-12-12T11:56:29.929Z,94.35
2022-12-12T11:57:29.921Z,93.93
2022-12-12T11:58:29.925Z,93.30
2022-12-12T11:59:29.907Z,93.41
2022-12-12T12:00:29.935Z,93.51
2022-12-12T12:01:29.896Z,92.92
2022-12-12T12:02:29.912Z,93.55
2022-12-12T12:03:29.960Z,93.49
2022-12-12T12:04:29.886Z,93.66
2022-12-12T12:05:29.893Z,94.08
2022-12-12T12:06:29.854Z,93.70
2022-12-12T12:07:29.870Z,93.70
2022-12-12T12:08:29.941Z,95.28
2022-12-12T12:09:29.840Z,95.01
2022-12-12T12:10:29.865Z,94.76
2022-12-12T12:11:29.828Z,94.96
2022-12-12T12:12:29.824Z,95.13
2022-12-12T12:13:29.804Z,95.13
2022-12-12T12:14:29.826Z,94.82
2022-12-12T12:15:29.816Z,94.25
2022-12-12T12:16:29.979Z,94.25
2022-12-12T12:17:29.773Z,94.60
2022-12-12T12:18:29.778Z,95.30
2022-12-12T12:19:29.765Z,94.67
2022-12-12T12:20:29.781Z,94.88
2022-12-12T12:21:29.779Z,93.62
2022-12-12T12:22:29.741Z,93.41
2022-12-12T12:23:29.741Z,93.93
2022-12-12T12:24:29.733Z,93.93
2022-12-12T12:25:29.726Z,93.62
2022-12-12T12:26:29.741Z,93.41
2022-12-12T12:27:29.707Z,93.72
2022-12-12T12:28:29.712Z,94.35
2022-12-12T12:29:29.696Z,94.67
2022-12-12T12:30:29.742Z,93.62
2022-12-12T12:31:29.706Z,94.04
2022-12-12T12:32:29.677Z,94.25
2022-12-12T12:33:29.673Z,94.04
2022-12-12T12:34:29.671Z,94.21
2022-12-12T12:35:29.655Z,93.72
2022-12-12T12:36:29.674Z,93.79
2022-12-12T12:37:29.638Z,93.68
2022-12-12T12:38:29.645Z,93.30
2022-12-12T12:39:29.619Z,93.79
2022-12-12T12:40:29.622Z,93.72
2022-12-12T12:41:29.642Z,93.93
2022-12-12T12:42:29.596Z,93.57
2022-12-12T12:43:29.592Z,92.94
2022-12-12T12:44:29.587Z,92.84
2022-12-12T12:45:29.583Z,92.80
2022-12-12T12:46:29.627Z,92.84
2022-12-12T12:47:29.568Z,92.69
2022-12-12T12:48:29.564Z,93.01
2022-12-12T12:49:29.560Z,92.27
2022-12-12T12:51:03.201Z,91.96
2022-12-12T12:51:29.575Z,92.00
2022-12-12T12:52:29.542Z,92.10